Time;durP1;ratioP1;P1;durP2;ratioP2;P2;SDS_P1;SDS_P2;PMS_P1;PMS_P2;Temp;Humidity;BMP_temperature;BMP_pressure;BME280_temperature;BME280_humidity;BME280_pressure;Samples;Min_cycle;Max_cycle;Signal;HPM_P1;HPM_P2
2022/09/23 00:01:14;;;;;;;33.20;15.38;;;;;;;9.39;97.44;150014.67;1782977;79;21059;-62
2022/09/23 00:03:47;;;;;;;31.37;15.23;;;;;;;9.37;97.51;150010.77;1792121;79;21464;-62
2022/09/23 00:06:15;;;;;;;23.92;14.60;;;;;;;9.36;97.67;150006.91;1784889;79;21781;-63
2022/09/23 00:08:42;;;;;;;28.55;14.78;;;;;;;9.34;97.87;150002.98;1784081;78;21030;-62
2022/09/23 00:11:15;;;;;;;26.68;15.35;;;;;;;9.33;98.11;150000.41;1788556;79;21429;-62
2022/09/23 00:13:45;;;;;;;24.12;15.32;;;;;;;9.30;98.18;149993.94;1779613;79;21006;-62
2022/09/23 00:16:18;;;;;;;21.20;14.40;;;;;;;9.30;98.43;149992.63;1773848;80;21690;-62
2022/09/23 00:18:45;;;;;;;36.55;15.03;;;;;;;9.27;98.35;149984.86;1779439;79;21176;-62
2022/09/23 00:21:13;;;;;;;27.17;14.07;;;;;;;9.26;98.13;149982.27;1776633;80;21509;-62
2022/09/23 00:23:41;;;;;;;24.12;14.58;;;;;;;9.24;97.96;149978.36;1776137;79;21065;-62
2022/09/23 00:26:11;;;;;;;22.25;14.28;;;;;;;9.22;97.99;149973.17;1774960;80;21035;-64
2022/09/23 00:28:37;;;;;;;23.22;13.85;;;;;;;9.21;97.98;149969.31;1781822;79;21500;-62
2022/09/23 00:31:13;;;;;;;25.08;13.03;;;;;;;9.19;98.05;149964.12;1769707;79;21886;-62
2022/09/23 00:33:40;;;;;;;23.27;14.00;;;;;;;9.15;98.02;149956.31;1772227;80;20927;-62
2022/09/23 00:36:11;;;;;;;24.35;13.62;;;;;;;9.13;97.91;149951.12;1783594;79;20983;-62
2022/09/23 00:38:38;;;;;;;21.82;12.68;;;;;;;9.09;97.80;149940.77;1768813;80;21118;-62
2022/09/23 00:41:05;;;;;;;25.72;13.08;;;;;;;9.06;97.82;149933.00;1776045;80;21651;-61
2022/09/23 00:43:46;;;;;;;27.37;12.68;;;;;;;9.02;97.88;149923.91;1775789;80;21126;-62
2022/09/23 00:46:38;;;;;;;30.65;12.13;;;;;;;9.00;98.03;149917.47;1776618;80;21030;-62
2022/09/23 00:49:25;;;;;;;30.15;12.53;;;;;;;8.97;98.17;149909.69;1777557;80;21031;-62
2022/09/23 00:51:59;;;;;;;20.02;11.68;;;;;;;8.96;98.28;149907.09;1745620;80;21721;-63
2022/09/23 00:54:26;;;;;;;16.70;11.15;;;;;;;8.92;98.44;149896.69;1777234;79;21543;-62
2022/09/23 00:56:54;;;;;;;17.30;11.55;;;;;;;8.91;98.64;149895.42;1781373;80;21273;-63
2022/09/23 00:59:23;;;;;;;22.32;11.50;;;;;;;8.88;98.75;149888.92;1771670;80;21130;-61
2022/09/23 01:01:53;;;;;;;20.43;11.60;;;;;;;8.86;98.79;149883.73;1777553;79;20983;-62
2022/09/23 01:04:22;;;;;;;18.98;11.08;;;;;;;8.83;98.77;149875.97;1777768;80;21457;-62
2022/09/23 01:06:50;;;;;;;25.68;11.38;;;;;;;8.80;98.78;149868.20;1783699;79;21055;-62
2022/09/23 01:09:18;;;;;;;16.85;10.13;;;;;;;8.73;98.78;149851.34;1772177;80;21243;-61
2022/09/23 01:12:05;;;;;;;22.85;10.53;;;;;;;8.69;98.96;149840.98;1777391;79;21519;-62
2022/09/23 01:15:03;;;;;;;18.10;10.35;;;;;;;8.64;99.22;149828.05;1777918;79;21055;-61
2022/09/23 01:18:08;;;;;;;17.45;11.03;;;;;;;8.62;99.31;149822.86;1782126;78;21429;-62
2022/09/23 01:21:10;;;;;;;17.30;10.43;;;;;;;8.56;99.35;149808.59;1782090;79;21073;-62
2022/09/23 01:24:03;;;;;;;21.30;9.88;;;;;;;8.51;99.52;149795.66;1784118;79;21481;-63
2022/09/23 01:26:56;;;;;;;17.65;9.98;;;;;;;8.45;99.46;149780.02;1787053;80;21111;-64
2022/09/23 01:29:59;;;;;;;15.68;9.95;;;;;;;8.36;99.44;149756.72;1786535;79;21567;-64
2022/09/23 01:33:04;;;;;;;14.80;9.65;;;;;;;8.28;99.68;149737.28;1739792;81;21099;-62
2022/09/23 01:35:49;;;;;;;19.52;10.63;;;;;;;8.20;99.84;149716.56;1782669;80;21034;-64
2022/09/23 01:38:33;;;;;;;16.70;9.97;;;;;;;8.17;100.00;149710.08;1777590;78;21570;-63
2022/09/23 01:41:14;;;;;;;22.80;9.68;;;;;;;8.11;100.00;149695.81;1781963;78;21348;-63
2022/09/23 01:44:04;;;;;;;16.32;10.28;;;;;;;8.08;100.00;149686.78;1774637;80;21607;-63
2022/09/23 01:46:36;;;;;;;24.37;10.65;;;;;;;8.05;100.00;149678.97;1781824;79;21021;-63
2022/09/23 01:49:14;;;;;;;28.40;9.35;;;;;;;8.03;100.00;149676.38;1779203;80;20979;-63
2022/09/23 01:51:52;;;;;;;18.55;9.30;;;;;;;8.02;100.00;149673.80;1786496;80;21269;-61
2022/09/23 01:54:37;;;;;;;19.15;8.78;;;;;;;8.02;100.00;149673.80;1773763;80;21099;-62
2022/09/23 01:57:27;;;;;;;21.60;10.40;;;;;;;8.03;100.00;149675.11;1780891;79;21033;-63
2022/09/23 01:59:59;;;;;;;20.57;8.28;;;;;;;8.03;100.00;149676.38;1777670;80;21026;-63
2022/09/23 02:02:32;;;;;;;13.50;8.63;;;;;;;8.02;100.00;149673.80;1772371;80;21280;-62
2022/09/23 02:05:08;;;;;;;14.15;7.55;;;;;;;8.01;100.00;149669.94;1760730;80;21842;-62
2022/09/23 02:07:43;;;;;;;12.73;7.62;;;;;;;7.98;100.00;149663.44;1785803;79;21108;-62
2022/09/23 02:10:20;;;;;;;14.65;7.65;;;;;;;7.98;100.00;149663.44;1778014;80;22038;-62
2022/09/23 02:12:51;;;;;;;19.07;7.45;;;;;;;7.98;100.00;149662.16;1786062;79;21109;-63
2022/09/23 02:15:19;;;;;;;9.03;6.65;;;;;;;7.97;100.00;149660.84;1781066;79;21010;-62
2022/09/23 02:18:02;;;;;;;11.03;7.05;;;;;;;7.94;100.00;149653.08;1784463;79;21534;-63
2022/09/23 02:20:32;;;;;;;11.97;7.72;;;;;;;7.90;100.00;149642.73;1783383;79;21033;-63
2022/09/23 02:23:11;;;;;;;10.85;7.03;;;;;;;7.86;100.00;149632.38;1778629;80;21645;-63
2022/09/23 02:25:55;;;;;;;12.82;6.35;;;;;;;7.82;100.00;149623.30;1782220;80;21049;-63
2022/09/23 02:28:49;;;;;;;12.80;7.08;;;;;;;7.78;100.00;149611.62;1782253;80;21026;-64
2022/09/23 02:31:31;;;;;;;10.32;6.53;;;;;;;7.76;100.00;149606.45;1782458;79;21756;-62
2022/09/23 02:34:12;;;;;;;19.92;7.03;;;;;;;7.71;100.00;149596.11;1777913;80;21028;-62
2022/09/23 02:37:08;;;;;;;9.35;6.35;;;;;;;7.71;100.00;149596.11;1785439;80;21010;-63
2022/09/23 02:39:53;;;;;;;15.45;6.85;;;;;;;7.69;100.00;149589.61;1782169;80;21030;-62
2022/09/23 02:42:22;;;;;;;11.12;5.78;;;;;;;7.67;100.00;149584.44;1744759;80;21062;-65
2022/09/23 02:44:49;;;;;;;13.20;6.65;;;;;;;7.63;100.00;149575.41;1779058;80;21224;-64
2022/09/23 02:47:17;;;;;;;9.50;6.15;;;;;;;7.61;100.00;149570.19;1777756;80;21090;-64
2022/09/23 02:49:44;;;;;;;9.30;5.80;;;;;;;7.60;100.00;149567.59;1782764;80;21077;-63
2022/09/23 02:52:12;;;;;;;8.80;6.10;;;;;;;7.56;100.00;149557.25;1781753;80;21090;-63
2022/09/23 02:54:39;;;;;;;16.52;6.55;;;;;;;7.50;100.00;149542.98;1782261;80;21010;-64
2022/09/23 02:57:06;;;;;;;11.10;6.10;;;;;;;7.49;100.00;149539.14;1792877;79;21705;-61
2022/09/23 02:59:33;;;;;;;16.40;5.80;;;;;;;7.48;100.00;149537.81;1792369;79;21018;-63
2022/09/23 03:02:43;;;;;;;17.17;5.72;;;;;;;7.48;100.00;149537.81;1786724;80;21030;-62
2022/09/23 03:05:30;;;;;;;11.48;5.45;;;;;;;7.48;100.00;149536.55;1746471;81;21064;-62
2022/09/23 03:08:28;;;;;;;9.83;5.28;;;;;;;7.44;100.00;149528.78;1736989;82;21125;-62
2022/09/23 03:11:07;;;;;;;10.03;5.53;;;;;;;7.39;100.00;149515.80;1743371;80;21929;-63
2022/09/23 03:14:05;;;;;;;11.83;5.65;;;;;;;7.36;100.00;149506.78;1733732;82;20988;-63
2022/09/23 03:17:02;;;;;;;8.70;5.42;;;;;;;7.35;100.00;149504.19;1729509;81;21046;-62
2022/09/23 03:19:41;;;;;;;9.25;4.70;;;;;;;7.35;100.00;149505.45;1734167;82;21533;-61
2022/09/23 03:22:13;;;;;;;8.43;5.00;;;;;;;7.32;100.00;149497.69;1730495;82;21394;-63
2022/09/23 03:24:41;;;;;;;8.53;4.62;;;;;;;7.29;100.00;149489.94;1729389;82;21228;-62
2022/09/23 03:27:13;;;;;;;8.43;4.70;;;;;;;7.26;100.00;149482.17;1729210;82;21049;-62
2022/09/23 03:29:46;;;;;;;7.33;4.65;;;;;;;7.17;100.00;149461.44;1730765;82;21120;-62
2022/09/23 03:32:15;;;;;;;11.48;4.87;;;;;;;7.11;100.00;149444.64;1734172;81;21102;-62
2022/09/23 03:34:42;;;;;;;12.18;5.00;;;;;;;7.07;100.00;149434.25;1728610;82;21032;-62
2022/09/23 03:37:29;;;;;;;15.25;4.92;;;;;;;7.05;100.00;149430.41;1728831;82;22193;-61
2022/09/23 03:40:19;;;;;;;10.80;5.80;;;;;;;7.02;100.00;149423.91;1735841;82;21061;-62
2022/09/23 03:42:50;;;;;;;12.98;5.20;;;;;;;7.00;100.00;149417.47;1730899;82;21479;-62
2022/09/23 03:45:17;;;;;;;10.48;5.60;;;;;;;6.97;100.00;149409.70;1729323;82;21491;-61
2022/09/23 03:47:44;;;;;;;11.03;5.17;;;;;;;6.97;100.00;149409.70;1729212;82;21115;-62
2022/09/23 03:50:18;;;;;;;17.62;6.35;;;;;;;6.95;100.00;149404.48;1729919;81;21929;-61
2022/09/23 03:52:46;;;;;;;16.60;5.80;;;;;;;6.96;100.00;149407.08;1725975;81;21120;-62
2022/09/23 03:55:15;;;;;;;12.63;5.75;;;;;;;6.97;100.00;149409.70;1727763;82;21016;-63
2022/09/23 03:57:43;;;;;;;10.23;6.20;;;;;;;6.98;100.00;149413.56;1728568;82;21057;-63
2022/09/23 04:00:12;;;;;;;12.10;6.25;;;;;;;7.03;100.00;149425.22;1730282;81;21097;-62
2022/09/23 04:02:38;;;;;;;12.30;6.53;;;;;;;7.05;100.00;149430.41;1733637;82;21238;-63
2022/09/23 04:05:06;;;;;;;13.95;6.40;;;;;;;7.09;100.00;149440.75;1730290;82;21073;-63
2022/09/23 04:07:34;;;;;;;9.28;6.67;;;;;;;7.13;100.00;149451.09;1727249;82;21484;-63
2022/09/23 04:10:01;;;;;;;16.27;7.33;;;;;;;7.13;100.00;149451.09;1730175;82;21035;-62
2022/09/23 04:12:29;;;;;;;12.25;6.90;;;;;;;7.16;100.00;149458.84;1726679;82;21143;-63
2022/09/23 04:14:55;;;;;;;12.35;7.33;;;;;;;7.21;100.00;149469.25;1725001;82;21298;-62
2022/09/23 04:17:22;;;;;;;12.60;6.55;;;;;;;7.22;100.00;149473.09;1719872;80;21003;-63
2022/09/23 04:19:49;;;;;;;9.90;6.35;;;;;;;7.25;100.00;149479.59;1715701;82;21068;-62
2022/09/23 04:22:16;;;;;;;11.18;6.42;;;;;;;7.28;100.00;149487.34;1720239;80;21510;-63
2022/09/23 04:24:43;;;;;;;8.75;6.20;;;;;;;7.34;100.00;149502.88;1720444;82;21039;-63
2022/09/23 04:27:10;;;;;;;10.65;6.50;;;;;;;7.41;100.00;149521.03;1716126;82;21239;-63
2022/09/23 04:29:37;;;;;;;11.90;6.30;;;;;;;7.48;100.00;149537.81;1786852;79;21481;-63
2022/09/23 04:32:05;;;;;;;11.08;6.12;;;;;;;7.57;100.00;149559.83;1765232;79;21079;-63
2022/09/23 04:34:33;;;;;;;14.13;6.08;;;;;;;7.66;100.00;149581.84;1779120;79;21522;-63
2022/09/23 04:36:59;;;;;;;14.73;6.28;;;;;;;7.71;100.00;149594.78;1761523;79;21038;-63
2022/09/23 04:39:26;;;;;;;11.80;7.33;;;;;;;7.81;100.00;149619.39;1770003;79;21145;-63
2022/09/23 04:41:53;;;;;;;16.97;8.10;;;;;;;7.90;100.00;149642.73;1768223;79;21050;-63
2022/09/23 04:44:20;;;;;;;17.02;7.75;;;;;;;8.03;100.00;149676.38;1786183;78;21113;-63
2022/09/23 04:46:48;;;;;;;18.60;7.42;;;;;;;8.17;100.00;149710.08;1795761;78;21011;-63
2022/09/23 04:49:15;;;;;;;14.95;7.10;;;;;;;8.32;100.00;149747.62;1793104;79;21049;-64
2022/09/23 04:51:42;;;;;;;14.00;6.55;;;;;;;8.44;100.00;149777.44;1775024;79;21878;-63
2022/09/23 04:54:10;;;;;;;15.70;6.10;;;;;;;8.57;100.00;149811.19;1775696;79;21026;-63
2022/09/23 04:56:38;;;;;;;12.15;5.80;;;;;;;8.74;100.00;149852.66;1767358;79;21267;-63
2022/09/23 04:59:05;;;;;;;9.88;5.53;;;;;;;8.88;100.00;149888.92;1778764;79;22135;-62
2022/09/23 05:01:33;;;;;;;6.33;4.37;;;;;;;9.04;99.66;149927.81;1764889;78;21028;-63
2022/09/23 05:04:04;;;;;;;8.18;5.40;;;;;;;9.31;98.82;149995.22;1782097;79;21915;-62
2022/09/23 05:06:33;;;;;;;6.05;4.30;;;;;;;9.62;97.59;150073.05;1767181;79;21567;-63
2022/09/23 05:09:00;;;;;;;12.00;4.20;;;;;;;10.04;96.21;150179.34;1761265;79;21094;-63
2022/09/23 05:11:29;;;;;;;6.00;3.85;;;;;;;10.51;93.59;150294.89;1774450;79;21294;-63
2022/09/23 05:13:55;;;;;;;6.25;3.72;;;;;;;10.64;90.65;150327.33;1778905;79;21069;-62
2022/09/23 05:16:23;;;;;;;7.58;3.55;;;;;;;10.60;89.39;150319.55;1779588;79;21123;-63
2022/09/23 05:18:50;;;;;;;6.22;4.08;;;;;;;10.51;88.85;150296.20;1781218;79;21451;-63
2022/09/23 05:21:20;;;;;;;9.23;3.90;;;;;;;10.47;88.90;150285.78;1774618;79;21583;-63
2022/09/23 05:23:55;;;;;;;8.40;4.15;;;;;;;10.44;88.91;150279.33;1785018;80;21517;-62
2022/09/23 05:26:25;;;;;;;12.55;4.15;;;;;;;10.51;89.08;150296.20;1780104;80;21464;-64
2022/09/23 05:28:52;;;;;;;8.55;4.03;;;;;;;10.58;88.74;150313.03;1779717;80;21866;-63
2022/09/23 05:31:21;;;;;;;8.68;3.85;;;;;;;10.76;88.58;150358.50;1777746;79;21083;-62
2022/09/23 05:33:57;;;;;;;8.10;3.98;;;;;;;11.08;87.86;150437.67;1784181;80;21021;-62
2022/09/23 05:36:25;;;;;;;7.72;3.95;;;;;;;11.42;86.42;150524.66;1780575;79;21084;-63
2022/09/23 05:38:51;;;;;;;5.45;3.60;;;;;;;11.53;85.04;150550.61;1784471;79;21014;-63
2022/09/23 05:41:21;;;;;;;8.05;3.20;;;;;;;11.51;84.30;150545.42;1774438;80;21296;-64
2022/09/23 05:43:50;;;;;;;10.80;3.47;;;;;;;11.46;84.46;150533.72;1779083;80;20986;-63
2022/09/23 05:46:20;;;;;;;7.97;3.72;;;;;;;11.45;84.54;150531.12;1776064;79;21026;-64
2022/09/23 05:48:46;;;;;;;8.93;3.20;;;;;;;11.48;84.63;150538.91;1774672;80;21503;-63
2022/09/23 05:51:23;;;;;;;11.63;3.12;;;;;;;11.55;84.65;150557.12;1778986;80;21117;-63
2022/09/23 05:53:51;;;;;;;9.70;3.40;;;;;;;11.65;84.36;150581.80;1772968;80;21903;-62
2022/09/23 05:56:21;;;;;;;4.95;3.35;;;;;;;11.75;83.93;150606.47;1776852;79;21021;-64
2022/09/23 05:58:49;;;;;;;9.30;3.27;;;;;;;11.81;83.56;150620.72;1779565;78;20950;-63
2022/09/23 06:01:23;;;;;;;5.50;2.92;;;;;;;11.88;83.58;150638.94;1781819;80;20970;-63
2022/09/23 06:03:48;;;;;;;4.83;3.25;;;;;;;11.95;83.42;150657.11;1744432;81;21039;-64
2022/09/23 06:06:16;;;;;;;9.45;3.72;;;;;;;12.01;83.32;150671.47;1779496;79;21522;-64
2022/09/23 06:08:45;;;;;;;6.65;2.98;;;;;;;12.09;83.41;150690.95;1781107;80;21506;-64
2022/09/23 06:11:12;;;;;;;7.58;2.92;;;;;;;12.20;83.19;150719.50;1781611;80;21326;-65
2022/09/23 06:13:39;;;;;;;7.10;3.20;;;;;;;12.29;82.87;150742.92;1774633;80;21531;-63
2022/09/23 06:16:09;;;;;;;8.53;2.80;;;;;;;12.41;82.25;150771.48;1769372;80;21145;-63
2022/09/23 06:18:44;;;;;;;8.05;2.75;;;;;;;12.46;81.72;150785.80;1769485;79;21884;-64
2022/09/23 06:21:13;;;;;;;6.05;2.50;;;;;;;12.48;81.43;150789.66;1703039;83;21530;-63
2022/09/23 06:23:40;;;;;;;7.85;2.77;;;;;;;12.50;81.50;150794.91;1727001;80;21126;-64
2022/09/23 06:26:09;;;;;;;6.08;2.75;;;;;;;12.55;81.26;150807.89;1716318;82;21125;-63
2022/09/23 06:28:39;;;;;;;6.83;2.77;;;;;;;12.63;81.10;150826.06;1712369;83;21736;-62
2022/09/23 06:31:14;;;;;;;7.40;2.83;;;;;;;12.71;80.76;150846.84;1710335;83;21798;-63
2022/09/23 06:33:42;;;;;;;7.20;2.70;;;;;;;12.81;80.52;150872.86;1771102;79;21069;-62
2022/09/23 06:36:14;;;;;;;7.50;2.45;;;;;;;12.96;80.27;150909.27;1766461;79;21092;-64
2022/09/23 06:38:43;;;;;;;5.05;2.35;;;;;;;13.10;80.00;150945.64;1771692;79;20999;-64
2022/09/23 06:41:11;;;;;;;9.08;2.70;;;;;;;13.27;79.76;150987.25;1770397;79;21147;-63
2022/09/23 06:43:39;;;;;;;8.95;2.67;;;;;;;13.44;78.96;151031.52;1772532;79;21020;-64
2022/09/23 06:46:07;;;;;;;4.50;2.60;;;;;;;13.59;78.15;151067.91;1771739;79;21123;-64
2022/09/23 06:48:37;;;;;;;5.80;2.65;;;;;;;13.72;77.45;151101.73;1769814;80;21246;-64
2022/09/23 06:51:06;;;;;;;6.03;2.45;;;;;;;13.85;77.00;151132.97;1768828;79;21092;-63
2022/09/23 06:53:33;;;;;;;3.92;2.30;;;;;;;13.99;76.76;151169.36;1776205;79;21793;-63
2022/09/23 06:56:07;;;;;;;3.92;2.30;;;;;;;14.10;75.71;151196.69;1769027;79;21132;-64
2022/09/23 06:58:35;;;;;;;10.15;2.30;;;;;;;14.19;74.17;151218.81;1767780;79;21119;-63
2022/09/23 07:01:09;;;;;;;8.40;2.27;;;;;;;14.26;73.56;151237.05;1769404;79;21513;-64
2022/09/23 07:03:37;;;;;;;11.08;2.60;;;;;;;14.37;72.76;151264.38;1779109;79;21025;-64
2022/09/23 07:06:06;;;;;;;5.78;2.00;;;;;;;14.54;72.06;151305.97;1771464;79;21048;-64
2022/09/23 07:08:33;;;;;;;17.20;2.17;;;;;;;15.01;70.73;151424.48;1769402;79;21917;-64
2022/09/23 07:11:03;;;;;;;11.08;2.30;;;;;;;15.35;68.69;151510.38;1770453;79;21061;-65
2022/09/23 07:13:35;;;;;;;9.75;2.52;;;;;;;15.43;67.40;151531.25;1778359;80;21103;-64
2022/09/23 07:16:03;;;;;;;9.00;2.50;;;;;;;15.37;67.12;151515.64;1780064;78;21103;-65
2022/09/23 07:18:32;;;;;;;9.33;2.10;;;;;;;15.27;67.27;151490.91;1786289;79;21214;-64
2022/09/23 07:21:13;;;;;;;8.03;2.05;;;;;;;15.23;67.73;151479.16;1783575;78;21744;-64
2022/09/23 07:23:47;;;;;;;7.45;1.90;;;;;;;15.22;67.66;151477.84;1781926;78;21035;-64
2022/09/23 07:26:15;;;;;;;9.45;1.90;;;;;;;15.24;66.75;151481.77;1780325;78;21019;-62
2022/09/23 07:28:42;;;;;;;6.42;1.90;;;;;;;15.24;66.85;151481.77;1782688;80;21029;-65
2022/09/23 07:31:13;;;;;;;4.60;1.62;;;;;;;15.25;66.50;151484.37;1751425;80;21783;-63
2022/09/23 07:33:42;;;;;;;6.03;1.70;;;;;;;15.24;66.28;151481.77;1737095;81;21092;-61
2022/09/23 07:36:12;;;;;;;5.75;2.00;;;;;;;15.26;66.21;151486.97;1738560;81;21053;-62
2022/09/23 07:38:39;;;;;;;3.95;1.40;;;;;;;15.30;66.07;151498.70;1747023;81;21490;-62
2022/09/23 07:41:09;;;;;;;3.80;1.50;;;;;;;15.32;65.95;151502.58;1739909;81;21063;-66
2022/09/23 07:43:37;;;;;;;8.80;1.55;;;;;;;15.37;65.54;151514.31;1743594;81;21096;-60
2022/09/23 07:46:11;;;;;;;4.90;1.40;;;;;;;15.43;64.33;151529.92;1744155;80;21113;-59
2022/09/23 07:48:38;;;;;;;7.87;1.45;;;;;;;15.49;63.45;151544.25;1737613;81;20918;-61
2022/09/23 07:51:17;;;;;;;5.47;1.45;;;;;;;15.51;63.17;151550.78;1746476;81;21015;-62
2022/09/23 07:53:50;;;;;;;6.75;1.80;;;;;;;15.54;63.03;151557.27;1747118;80;21075;-61
2022/09/23 07:56:21;;;;;;;3.80;1.60;;;;;;;15.56;62.97;151562.47;1726989;82;21111;-60
2022/09/23 07:58:58;;;;;;;4.17;1.70;;;;;;;15.57;62.76;151565.08;1733182;81;21964;-60
2022/09/23 08:01:15;;;;;;;3.60;1.65;;;;;;;15.58;62.20;151567.67;1729959;81;21581;-62
2022/09/23 08:03:44;;;;;;;4.65;1.55;;;;;;;15.59;62.15;151571.61;1735913;82;21040;-60
2022/09/23 08:06:12;;;;;;;4.95;2.05;;;;;;;15.59;62.29;151570.33;1705643;81;21068;-61
2022/09/23 08:08:42;;;;;;;6.40;1.57;;;;;;;15.65;61.92;151585.94;1735679;81;21111;-62
2022/09/23 08:11:10;;;;;;;2.75;1.62;;;;;;;15.69;61.40;151596.34;1729345;81;21158;-63
2022/09/23 08:13:38;;;;;;;2.65;1.70;;;;;;;15.75;60.95;151610.69;1724026;82;21682;-62
2022/09/23 08:16:05;;;;;;;3.75;1.95;;;;;;;15.79;61.30;151619.78;1716676;81;21040;-62
2022/09/23 08:18:33;;;;;;;4.78;1.55;;;;;;;15.86;61.37;151638.05;1720131;82;21411;-62
2022/09/23 08:20:59;;;;;;;3.10;1.77;;;;;;;15.97;61.30;151666.72;1725850;82;21093;-62
2022/09/23 08:23:26;;;;;;;3.70;1.62;;;;;;;16.02;60.78;151679.73;1721024;82;21135;-62
2022/09/23 08:25:58;;;;;;;6.03;1.60;;;;;;;16.04;59.76;151685.00;1724551;82;21295;-62
2022/09/23 08:28:26;;;;;;;3.37;1.62;;;;;;;16.03;59.57;151681.06;1720650;81;21035;-62
2022/09/23 08:30:53;;;;;;;3.25;1.60;;;;;;;16.04;59.00;151685.00;1729714;82;21104;-62
2022/09/23 08:33:19;;;;;;;5.50;1.67;;;;;;;16.02;58.37;151679.73;1728739;82;21396;-62
2022/09/23 08:35:46;;;;;;;5.25;1.87;;;;;;;15.96;57.65;151664.13;1724384;82;21262;-62
2022/09/23 08:38:13;;;;;;;6.08;1.90;;;;;;;15.90;58.29;151648.50;1716812;82;21494;-62
2022/09/23 08:40:42;;;;;;;6.78;1.80;;;;;;;15.88;58.83;151644.58;1726660;82;21088;-61
2022/09/23 08:43:27;;;;;;;5.30;1.90;;;;;;;15.96;58.94;151664.13;1730481;81;21089;-60
2022/09/23 08:45:57;;;;;;;8.13;1.80;;;;;;;16.10;58.15;151698.02;1723785;81;20917;-58
2022/09/23 08:48:43;;;;;;;7.33;1.67;;;;;;;16.22;57.66;151729.25;1721851;82;21916;-62
2022/09/23 08:51:14;;;;;;;2.27;1.30;;;;;;;16.39;57.08;151770.95;1720728;81;20962;-62
2022/09/23 08:53:42;;;;;;;3.20;1.77;;;;;;;16.63;56.47;151830.89;1771567;80;20896;-62
2022/09/23 08:56:15;;;;;;;6.15;1.47;;;;;;;16.83;55.71;151883.03;1772037;79;20949;-62
2022/09/23 08:59:09;;;;;;;4.35;1.80;;;;;;;16.91;55.50;151902.58;1765299;80;21036;-62
2022/09/23 09:01:52;;;;;;;3.08;1.77;;;;;;;17.00;55.44;151924.80;1770677;79;21847;-61
2022/09/23 09:04:36;;;;;;;11.80;1.50;;;;;;;17.14;55.11;151961.31;1774075;79;21033;-62
2022/09/23 09:07:14;;;;;;;4.12;1.50;;;;;;;17.14;53.44;151961.31;1770979;80;21110;-62
2022/09/23 09:09:55;;;;;;;7.15;1.62;;;;;;;17.12;54.06;151956.05;1769363;79;21079;-64
2022/09/23 09:12:51;;;;;;;4.58;1.32;;;;;;;17.28;53.55;151995.17;1769200;79;22049;-62
2022/09/23 09:15:22;;;;;;;4.50;1.72;;;;;;;17.38;53.12;152021.28;1751116;79;22026;-61
2022/09/23 09:18:10;;;;;;;4.42;2.00;;;;;;;17.57;53.17;152068.19;1773983;80;21109;-61
2022/09/23 09:20:59;;;;;;;5.20;1.80;;;;;;;17.73;52.73;152109.92;1767715;80;21044;-62
2022/09/23 09:23:54;;;;;;;4.67;1.80;;;;;;;17.83;51.86;152133.42;1765203;80;21107;-62
2022/09/23 09:26:28;;;;;;;;;;;;;;;17.89;51.95;152149.06;1773960;79;21076;-61
2022/09/23 09:29:14;;;;;;;3.55;1.77;;;;;;;17.96;51.91;152166.03;1771202;79;21186;-61
2022/09/23 09:31:48;;;;;;;2.62;1.60;;;;;;;18.08;51.77;152197.36;1770076;79;21244;-62
2022/09/23 09:34:46;;;;;;;3.65;1.45;;;;;;;18.28;51.77;152248.25;1771190;79;20934;-62
2022/09/23 09:37:34;;;;;;;2.27;1.47;;;;;;;18.44;51.24;152287.36;1769770;79;21636;-62
2022/09/23 09:40:01;;;;;;;3.35;1.40;;;;;;;18.45;51.07;152289.97;1773923;79;21079;-63
2022/09/23 09:42:39;;;;;;;3.22;1.60;;;;;;;18.55;50.58;152316.09;1775705;78;21276;-62
2022/09/23 09:45:18;;;;;;;4.62;1.80;;;;;;;18.64;49.63;152338.28;1751983;80;21059;-62
2022/09/23 09:48:10;;;;;;;4.15;1.60;;;;;;;18.55;49.25;152316.09;1772422;80;21029;-62
2022/09/23 09:50:50;;;;;;;3.77;2.15;;;;;;;18.43;49.65;152286.09;1769636;80;21101;-63
2022/09/23 09:53:24;;;;;;;1.92;1.57;;;;;;;18.38;49.52;152271.72;1770003;78;21117;-62
2022/09/23 09:55:59;;;;;;;2.00;1.50;;;;;;;18.23;49.06;152235.17;1772967;79;20968;-63
2022/09/23 09:58:40;;;;;;;3.00;1.82;;;;;;;18.14;49.44;152211.72;1772776;79;21540;-62
2022/09/23 10:01:06;;;;;;;4.60;1.87;;;;;;;18.24;49.47;152237.83;1761002;80;21089;-61
2022/09/23 10:03:40;;;;;;;3.47;1.50;;;;;;;18.39;49.28;152275.66;1773015;80;21035;-63
2022/09/23 10:06:19;;;;;;;6.12;1.90;;;;;;;18.51;48.98;152304.34;1765995;79;21088;-62
2022/09/23 10:09:10;;;;;;;3.05;1.80;;;;;;;18.61;48.99;152330.45;1770143;80;21277;-62
2022/09/23 10:11:37;;;;;;;2.80;2.10;;;;;;;18.76;48.31;152368.30;1761609;79;21089;-63
2022/09/23 10:14:17;;;;;;;3.55;1.67;;;;;;;18.85;47.95;152391.75;1753468;79;21112;-62
2022/09/23 10:16:46;;;;;;;4.60;1.37;;;;;;;18.92;46.53;152407.45;1718105;81;20980;-63
2022/09/23 10:19:26;;;;;;;3.65;2.20;;;;;;;18.85;46.46;152391.75;1732321;82;21105;-66
2022/09/23 10:21:59;;;;;;;2.52;1.60;;;;;;;18.73;46.41;152360.47;1726447;82;22791;-63
2022/09/23 10:24:31;;;;;;;2.42;1.12;;;;;;;18.71;46.16;152355.25;1727698;82;21092;-65
2022/09/23 10:27:02;;;;;;;7.22;1.40;;;;;;;18.51;44.58;152304.34;1724495;80;22206;-67
2022/09/23 10:29:32;;;;;;;3.42;1.37;;;;;;;18.19;44.87;152224.75;1727171;80;21032;-65
2022/09/23 10:32:29;;;;;;;5.80;1.30;;;;;;;18.04;45.78;152188.25;1731200;82;21099;-63
2022/09/23 10:35:14;;;;;;;2.52;1.42;;;;;;;17.93;44.97;152159.48;1700635;82;21248;-61
2022/09/23 10:37:54;;;;;;;3.10;1.50;;;;;;;17.83;46.61;152133.42;1725291;80;21016;-65
2022/09/23 10:46:48;;;;;;;2.47;1.30;;;;;;;18.07;47.67;152193.47;1736154;82;21060;-64
2022/09/23 10:49:36;;;;;;;1.62;1.20;;;;;;;18.29;46.77;152250.86;1732420;82;21217;-66
2022/09/23 10:52:26;;;;;;;4.78;1.47;;;;;;;18.51;46.09;152304.34;1726016;81;21008;-64
2022/09/23 10:55:46;;;;;;;2.42;1.32;;;;;;;18.72;45.63;152359.14;1727523;82;21087;-65
2022/09/23 10:58:50;;;;;;;1.90;1.30;;;;;;;18.82;44.90;152383.94;1730016;82;21040;-66
2022/09/23 11:01:39;;;;;;;6.55;1.40;;;;;;;18.87;45.04;152395.69;1735849;81;21496;-66
2022/09/23 11:04:33;;;;;;;4.90;1.70;;;;;;;18.89;45.22;152402.19;1733207;82;22125;-66
2022/09/23 11:07:13;;;;;;;3.10;1.30;;;;;;;18.98;45.27;152423.11;1709232;82;21028;-66
2022/09/23 11:10:03;;;;;;;4.40;1.47;;;;;;;19.08;44.85;152447.95;1730439;82;21089;-66
2022/09/23 11:12:53;;;;;;;7.17;2.08;;;;;;;19.00;43.98;152429.66;1733510;81;21514;-65
2022/09/23 11:15:41;;;;;;;4.33;2.00;;;;;;;18.68;44.22;152348.70;1762642;78;21116;-64
2022/09/23 11:18:53;;;;;;;3.62;1.60;;;;;;;18.45;44.71;152291.30;1774447;79;21223;-65
2022/09/23 11:21:50;;;;;;;3.15;1.67;;;;;;;18.38;44.91;152271.72;1774072;80;21063;-66
2022/09/23 11:24:50;;;;;;;3.75;1.32;;;;;;;18.29;44.83;152250.86;1778027;79;21174;-65
2022/09/23 11:27:53;;;;;;;1.52;1.15;;;;;;;18.18;45.11;152222.14;1781610;79;21046;-66
2022/09/23 11:30:19;;;;;;;2.08;1.30;;;;;;;18.08;44.84;152197.36;1780308;80;21407;-65
2022/09/23 11:33:06;;;;;;;6.28;1.40;;;;;;;17.98;45.31;152172.52;1778520;80;21551;-65
2022/09/23 11:35:52;;;;;;;1.67;1.25;;;;;;;17.97;45.23;152169.91;1772667;80;21092;-65
2022/09/23 11:38:30;;;;;;;9.65;1.87;;;;;;;17.94;45.37;152162.09;1771637;79;21024;-65
2022/09/23 11:41:01;;;;;;;7.65;1.20;;;;;;;18.02;44.35;152183.03;1774844;80;21674;-65
2022/09/23 11:43:32;;;;;;;2.25;0.98;;;;;;;18.14;43.23;152211.72;1773314;80;21460;-65
2022/09/23 11:46:12;;;;;;;4.33;0.90;;;;;;;18.26;42.31;152243.03;1782386;79;21891;-65
2022/09/23 11:48:46;;;;;;;2.08;1.02;;;;;;;18.38;41.90;152271.72;1781174;78;21013;-65
2022/09/23 11:51:31;;;;;;;0.88;0.80;;;;;;;18.49;41.58;152300.44;1781251;79;21148;-65
2022/09/23 11:54:15;;;;;;;1.87;1.05;;;;;;;18.59;42.06;152325.23;1773388;80;21098;-65
2022/09/23 11:56:47;;;;;;;1.80;1.10;;;;;;;18.66;42.44;152342.16;1779490;80;20991;-64
2022/09/23 11:59:36;;;;;;;4.20;1.37;;;;;;;18.71;42.09;152355.25;1771199;80;21830;-64
2022/09/23 12:02:29;;;;;;;2.27;1.57;;;;;;;18.66;41.84;152342.16;1740353;80;21069;-64
2022/09/23 12:05:02;;;;;;;4.60;1.40;;;;;;;18.52;42.27;152308.27;1778705;79;21390;-65